Accueil
METAR-TAF:

METAR-TAF

Aéroports :

Jendouba, Tunisie

latitude: 36-29N, longitude: 008-48E, altitude: 143 m

Observation

Le bulletin a été fait il y a 41 minutes, à 18:00 UTC
Vent 3 kt de nord-est
Température 16°C
Humidité 55%
Pression 1023 hPa

METAR: DTTN 061800Z AUTO 04003KT NCD 16/07 Q1023

Heure: 19:41 (18:41 UTC)


TAF: absent

Observations et prévisions météorologiques de plus de 4000 aéroports (messages METAR et TAF).

Les stations disponibles sont représentées par des disques jaunes et rouges sur la carte.

Passer la souris dessus pour voir le nom de la station.

Cliquer dessus pour voir les observations et prévisions météorologiques.

Pour changer de carte: cliquez sur les boutons verts avec une croix noire pour zoomer, sur le bouton vert avec un tiret pour effectuer un zoom arrière, ou sur les flèches vertes pour les cartes adjacentes.


METAR-TAF: